Time;durP1;ratioP1;P1;durP2;ratioP2;P2;SDS_P1;SDS_P2;PMS_P1;PMS_P2;Temp;Humidity;BMP_temperature;BMP_pressure;BME280_temperature;BME280_humidity;BME280_pressure;Samples;Min_cycle;Max_cycle;Signal;HPM_P1;HPM_P2
2022/04/28 00:00:37;;;;;;;13.45;5.63;;;;;;;7.51;88.21;102779.19;6435959;23;20406;-68
2022/04/28 00:03:10;;;;;;;10.35;4.88;;;;;;;7.44;88.87;102775.13;6437006;22;20013;-68
2022/04/28 00:05:42;;;;;;;13.32;4.85;;;;;;;7.41;88.92;102778.69;6434753;23;20004;-68
2022/04/28 00:08:13;;;;;;;9.65;4.30;;;;;;;7.43;87.29;102779.50;6435901;23;20458;-68
2022/04/28 00:10:45;;;;;;;13.95;5.18;;;;;;;7.37;88.79;102784.94;6436584;23;20041;-68
2022/04/28 00:13:17;;;;;;;13.05;5.55;;;;;;;7.31;88.72;102788.66;6436474;23;20005;-68
2022/04/28 00:15:48;;;;;;;9.50;4.63;;;;;;;7.27;89.00;102789.69;6435662;23;20076;-69
2022/04/28 00:18:19;;;;;;;8.35;4.75;;;;;;;7.28;89.63;102795.75;6436222;23;20439;-68
2022/04/28 00:20:51;;;;;;;10.10;5.32;;;;;;;7.25;89.70;102791.50;6435037;23;20060;-68
2022/04/28 00:23:22;;;;;;;12.60;5.30;;;;;;;7.18;89.92;102797.00;6436513;23;20017;-68
2022/04/28 00:25:53;;;;;;;10.80;5.10;;;;;;;7.09;91.19;102792.19;6434982;23;20009;-68
2022/04/28 00:28:24;;;;;;;12.32;5.20;;;;;;;7.05;90.43;102792.28;6436389;23;20012;-68
2022/04/28 00:30:56;;;;;;;9.68;5.50;;;;;;;7.00;91.22;102783.78;6435989;22;20001;-68
2022/04/28 00:33:27;;;;;;;9.85;4.72;;;;;;;7.06;90.77;102793.97;6434954;23;20456;-67
2022/04/28 00:35:59;;;;;;;10.13;5.00;;;;;;;6.93;92.00;102792.75;6436142;23;20445;-68
2022/04/28 00:38:30;;;;;;;12.68;5.82;;;;;;;6.91;92.73;102791.97;6436295;23;20358;-68
2022/04/28 00:41:02;;;;;;;8.20;5.60;;;;;;;6.82;93.85;102790.56;6436234;23;20519;-69
2022/04/28 00:43:33;;;;;;;11.90;5.65;;;;;;;6.73;95.03;102785.69;6434822;23;20475;-68
2022/04/28 00:46:04;;;;;;;10.75;5.00;;;;;;;6.81;93.57;102782.78;6435854;23;20013;-68
2022/04/28 00:51:26;;;;;;;10.65;5.55;;;;;;;6.77;94.68;102786.41;6435722;23;20005;-68
2022/04/28 00:54:00;;;;;;;10.60;5.43;;;;;;;6.79;93.97;102792.44;6435595;23;20041;-69
2022/04/28 00:56:31;;;;;;;10.00;5.28;;;;;;;6.77;93.53;102787.25;6436547;23;20005;-68
2022/04/28 00:59:03;;;;;;;11.20;6.38;;;;;;;6.73;92.68;102771.81;6434641;22;20020;-68
2022/04/28 01:01:34;;;;;;;11.00;5.70;;;;;;;6.80;92.79;102771.53;6436481;23;20009;-68
2022/04/28 01:04:06;;;;;;;13.63;5.43;;;;;;;6.69;94.39;102776.28;6435028;23;20095;-68
2022/04/28 01:06:40;;;;;;;7.43;5.03;;;;;;;6.71;94.88;102781.47;6435601;23;20088;-67
2022/04/28 01:09:14;;;;;;;9.57;5.32;;;;;;;6.61;96.25;102780.94;6435627;23;20036;-67
2022/04/28 01:11:46;;;;;;;11.43;5.53;;;;;;;6.56;95.32;102775.91;6408698;23;20091;-68
2022/04/28 01:14:17;;;;;;;9.00;5.43;;;;;;;6.50;96.27;102772.66;6435861;23;20068;-68
2022/04/28 01:16:48;;;;;;;10.45;5.80;;;;;;;6.64;95.98;102782.59;6434956;23;20384;-68
2022/04/28 01:19:19;;;;;;;14.40;6.15;;;;;;;6.55;96.01;102783.75;6435578;23;20019;-68
2022/04/28 01:21:51;;;;;;;10.88;6.10;;;;;;;6.58;94.71;102783.66;6436433;23;20005;-68
2022/04/28 01:24:22;;;;;;;17.20;5.93;;;;;;;6.61;94.92;102787.91;6435674;23;20089;-69
2022/04/28 01:26:56;;;;;;;11.35;5.75;;;;;;;6.56;96.79;102788.09;6435578;23;20146;-67
2022/04/28 01:29:30;;;;;;;11.48;5.72;;;;;;;6.46;96.30;102789.31;6435833;23;20413;-68
2022/04/28 01:32:02;;;;;;;10.82;5.97;;;;;;;6.45;96.78;102791.06;6436102;23;20349;-68
2022/04/28 01:34:33;;;;;;;13.40;5.82;;;;;;;6.46;96.01;102787.56;6435130;23;20016;-69
2022/04/28 01:37:06;;;;;;;10.80;5.65;;;;;;;6.59;97.03;102785.34;6435853;23;20444;-68
2022/04/28 01:39:37;;;;;;;12.32;6.28;;;;;;;6.53;95.74;102788.19;6435549;23;20005;-68
2022/04/28 01:42:09;;;;;;;12.32;5.78;;;;;;;6.47;95.43;102789.25;6435017;23;20064;-68
2022/04/28 01:44:40;;;;;;;11.00;5.97;;;;;;;6.45;95.85;102792.84;6435897;23;20091;-68
2022/04/28 01:47:11;;;;;;;10.38;5.72;;;;;;;6.36;97.16;102791.38;6409402;23;20437;-68
2022/04/28 01:49:44;;;;;;;10.98;5.78;;;;;;;6.30;97.37;102787.25;6435809;23;20492;-68
2022/04/28 01:55:05;;;;;;;9.93;5.57;;;;;;;6.30;98.06;102781.22;6435084;23;20009;-67
2022/04/28 01:57:37;;;;;;;14.07;6.45;;;;;;;6.27;98.23;102783.91;6436490;23;20441;-68
2022/04/28 02:00:09;;;;;;;9.25;5.55;;;;;;;6.24;98.54;102784.03;6435543;23;20059;-68
2022/04/28 02:02:42;;;;;;;10.80;6.30;;;;;;;6.25;98.06;102775.31;6434551;23;20009;-68
2022/04/28 02:05:13;;;;;;;15.35;5.53;;;;;;;6.32;98.38;102784.59;6434012;23;20031;-67
2022/04/28 02:07:44;;;;;;;11.65;6.40;;;;;;;6.21;97.66;102789.31;6434265;23;20008;-68
2022/04/28 02:10:15;;;;;;;12.20;6.00;;;;;;;6.15;98.34;102792.16;6435536;23;20055;-68
2022/04/28 02:12:47;;;;;;;12.73;6.10;;;;;;;6.19;99.11;102784.19;6434532;23;20005;-67
2022/04/28 02:15:18;;;;;;;11.75;6.43;;;;;;;6.21;98.55;102790.22;6435425;23;20008;-68
2022/04/28 02:17:49;;;;;;;11.80;6.28;;;;;;;6.03;99.35;102799.50;6435761;23;20001;-67
2022/04/28 02:20:21;;;;;;;11.52;6.35;;;;;;;6.04;100.00;102788.19;6435105;23;20055;-68
2022/04/28 02:22:52;;;;;;;10.88;5.95;;;;;;;6.09;99.42;102793.22;6408673;23;20037;-68
2022/04/28 02:25:24;;;;;;;13.07;6.70;;;;;;;6.02;100.00;102784.78;6433298;23;20009;-68
2022/04/28 02:27:56;;;;;;;11.40;6.55;;;;;;;6.14;99.71;102787.84;6435246;23;20009;-68
2022/04/28 02:30:27;;;;;;;11.32;6.43;;;;;;;6.06;100.00;102781.19;6435632;23;20008;-68
2022/04/28 02:33:11;;;;;;;11.07;6.47;;;;;;;6.08;100.00;102781.97;6434825;23;20055;-68
2022/04/28 02:35:42;;;;;;;9.18;5.93;;;;;;;6.19;99.05;102788.56;6407795;23;20372;-67
2022/04/28 02:38:13;;;;;;;13.23;7.88;;;;;;;6.11;100.00;102785.38;6435159;23;20119;-68
2022/04/28 02:40:45;;;;;;;10.88;6.53;;;;;;;6.09;100.00;102783.66;6434721;23;20001;-68
2022/04/28 02:45:50;;;;;;;9.07;6.18;;;;;;;6.09;100.00;102777.59;6393603;23;20029;-69
2022/04/28 02:48:22;;;;;;;11.70;5.95;;;;;;;6.13;99.92;102780.94;6403942;23;20340;-69
2022/04/28 02:50:53;;;;;;;14.45;6.90;;;;;;;6.03;100.00;102768.28;6403271;23;20125;-69
2022/04/28 02:53:24;;;;;;;12.13;6.40;;;;;;;6.11;100.00;102768.00;6382285;23;20006;-68
2022/04/28 02:55:56;;;;;;;14.73;7.15;;;;;;;6.10;100.00;102768.91;6372705;23;20207;-69
2022/04/28 02:58:27;;;;;;;13.93;6.88;;;;;;;6.12;100.00;102779.25;6373245;23;20009;-68
2022/04/28 03:00:58;;;;;;;11.85;6.57;;;;;;;6.14;100.00;102775.72;6372442;23;20002;-70
2022/04/28 03:03:31;;;;;;;12.85;6.82;;;;;;;6.15;100.00;102779.16;6372620;23;20059;-68
2022/04/28 03:11:42;;;;;;;14.50;6.55;;;;;;;6.11;100.00;102783.63;6371844;23;20013;-68
2022/04/28 03:14:13;;;;;;;10.85;7.03;;;;;;;6.09;100.00;102786.25;6346370;23;20014;-68
2022/04/28 03:16:44;;;;;;;12.70;7.07;;;;;;;6.01;100.00;102784.81;6372976;23;20429;-68
2022/04/28 03:19:16;;;;;;;14.70;7.88;;;;;;;5.94;100.00;102773.78;6372332;23;20005;-69
2022/04/28 03:21:47;;;;;;;10.63;6.93;;;;;;;5.97;100.00;102776.28;6372885;23;20025;-69
2022/04/28 03:24:18;;;;;;;16.48;7.75;;;;;;;5.91;100.00;102779.06;6372368;23;20029;-69
2022/04/28 03:26:49;;;;;;;14.20;7.57;;;;;;;5.93;100.00;102779.88;6369150;23;20086;-68
2022/04/28 03:29:21;;;;;;;10.25;7.07;;;;;;;5.97;100.00;102772.84;6372905;23;20005;-69
2022/04/28 03:31:52;;;;;;;14.15;7.78;;;;;;;5.94;100.00;102784.19;6373922;23;20081;-69
2022/04/28 03:34:25;;;;;;;13.95;6.82;;;;;;;6.02;100.00;102781.31;6375387;23;20133;-69
2022/04/28 03:36:56;;;;;;;14.02;6.60;;;;;;;6.03;100.00;102788.25;6374760;23;20036;-68
2022/04/28 03:39:28;;;;;;;15.73;7.63;;;;;;;5.92;100.00;102770.41;6374174;23;20337;-68
2022/04/28 03:41:59;;;;;;;16.02;7.25;;;;;;;5.95;100.00;102780.69;6374979;23;20025;-68
2022/04/28 03:44:30;;;;;;;12.75;7.50;;;;;;;5.95;100.00;102778.09;6373308;23;20040;-68
2022/04/28 03:47:03;;;;;;;14.68;7.60;;;;;;;5.98;100.00;102783.16;6374677;23;20549;-69
2022/04/28 03:49:34;;;;;;;14.50;8.32;;;;;;;5.95;100.00;102782.47;6374267;23;20005;-69
2022/04/28 03:52:06;;;;;;;12.05;7.38;;;;;;;5.90;100.00;102786.91;6348004;23;20017;-69
2022/04/28 03:54:37;;;;;;;10.98;7.55;;;;;;;5.90;100.00;102795.56;6374598;23;20008;-68
2022/04/28 03:57:08;;;;;;;14.35;7.70;;;;;;;5.90;100.00;102797.31;6374081;23;20048;-68
2022/04/28 03:59:40;;;;;;;14.80;8.27;;;;;;;5.88;100.00;102802.59;6373707;23;20029;-69
2022/04/28 04:02:11;;;;;;;14.50;7.90;;;;;;;5.83;100.00;102794.94;6373181;23;20497;-69
2022/04/28 04:04:42;;;;;;;17.77;7.50;;;;;;;5.85;100.00;102802.69;6373317;23;20064;-69
2022/04/28 04:07:14;;;;;;;15.43;8.18;;;;;;;5.79;100.00;102801.13;6372414;23;20024;-69
2022/04/28 04:09:45;;;;;;;13.10;7.88;;;;;;;5.75;100.00;102790.88;6374588;23;20002;-68
2022/04/28 04:12:16;;;;;;;17.10;8.98;;;;;;;5.77;100.00;102795.13;6374783;23;20013;-69
2022/04/28 04:14:48;;;;;;;14.35;7.35;;;;;;;5.72;100.00;102804.84;6374447;23;20006;-69
2022/04/28 04:17:20;;;;;;;15.45;8.52;;;;;;;5.77;100.00;102796.91;6373228;23;20005;-68
2022/04/28 04:19:52;;;;;;;14.40;8.60;;;;;;;5.74;100.00;102791.78;6374719;23;20001;-69
2022/04/28 04:22:23;;;;;;;14.90;7.80;;;;;;;5.77;100.00;102800.34;6373864;23;20434;-69
2022/04/28 04:24:54;;;;;;;15.00;8.15;;;;;;;5.85;100.00;102806.13;6373812;23;20400;-69
2022/04/28 04:27:25;;;;;;;14.43;8.40;;;;;;;5.77;100.00;102802.09;6374841;23;20002;-69
2022/04/28 04:29:57;;;;;;;14.40;9.00;;;;;;;5.75;100.00;102798.69;6374482;23;20053;-68
2022/04/28 04:32:28;;;;;;;12.88;8.02;;;;;;;5.73;100.00;102800.50;6373929;23;20084;-68
2022/04/28 04:34:59;;;;;;;19.05;9.95;;;;;;;5.71;100.00;102802.28;6373867;23;20404;-69
2022/04/28 04:37:30;;;;;;;13.68;8.90;;;;;;;5.74;100.00;102805.63;6374703;23;20017;-69
2022/04/28 04:40:02;;;;;;;13.98;8.18;;;;;;;5.74;100.00;102805.63;6374353;23;20002;-69
2022/04/28 04:42:33;;;;;;;14.95;9.30;;;;;;;5.77;100.00;102808.13;6373922;23;20064;-69
2022/04/28 04:45:08;;;;;;;14.38;9.05;;;;;;;5.80;100.00;102815.00;6374497;23;20141;-68
2022/04/28 04:47:40;;;;;;;15.18;8.70;;;;;;;5.76;100.00;102816.00;6373492;23;20104;-69
2022/04/28 04:50:11;;;;;;;16.33;8.57;;;;;;;5.80;100.00;102817.59;6374094;23;20448;-69
2022/04/28 04:52:42;;;;;;;15.95;9.18;;;;;;;5.81;100.00;102825.34;6374480;23;20012;-68
2022/04/28 04:55:14;;;;;;;16.25;9.52;;;;;;;5.83;100.00;102820.06;6373326;23;20025;-68
2022/04/28 04:57:45;;;;;;;12.57;8.43;;;;;;;5.87;100.00;102826.88;6374176;23;20114;-68
2022/04/28 05:00:16;;;;;;;12.35;8.38;;;;;;;5.90;100.00;102824.19;6373787;23;20422;-69
2022/04/28 05:02:47;;;;;;;18.02;9.48;;;;;;;5.93;100.00;102831.06;6373188;23;20018;-68
2022/04/28 05:05:19;;;;;;;18.60;9.48;;;;;;;5.95;100.00;102837.09;6373609;23;20067;-68
2022/04/28 05:07:50;;;;;;;19.10;9.48;;;;;;;6.01;100.00;102837.72;6374345;23;20006;-69
2022/04/28 05:10:21;;;;;;;20.17;9.82;;;;;;;6.04;100.00;102839.38;6347462;23;20013;-68
2022/04/28 05:12:53;;;;;;;15.43;9.07;;;;;;;6.07;100.00;102847.94;6374453;23;20076;-69
2022/04/28 05:15:24;;;;;;;17.05;9.68;;;;;;;6.12;100.00;102847.75;6374105;23;20001;-71
2022/04/28 05:17:55;;;;;;;18.08;9.85;;;;;;;6.18;100.00;102859.72;6373651;23;20063;-68
2022/04/28 05:20:26;;;;;;;17.85;9.63;;;;;;;6.20;100.00;102858.75;6347176;23;20002;-69
2022/04/28 05:22:58;;;;;;;17.00;9.70;;;;;;;6.27;100.00;102857.66;6373787;23;20020;-69
2022/04/28 05:25:29;;;;;;;15.40;9.73;;;;;;;6.32;100.00;102857.47;6374178;23;20057;-70
2022/04/28 05:28:00;;;;;;;15.60;9.55;;;;;;;6.38;100.00;102859.88;6374148;23;20017;-68
2022/04/28 05:30:32;;;;;;;16.27;10.00;;;;;;;6.39;100.00;102856.38;6373391;23;20064;-69
2022/04/28 05:33:03;;;;;;;17.05;9.88;;;;;;;6.42;100.00;102856.25;6347946;23;20012;-70
2022/04/28 05:35:37;;;;;;;17.77;10.07;;;;;;;6.50;100.00;102856.84;6347043;23;20044;-68
2022/04/28 05:38:10;;;;;;;21.42;9.95;;;;;;;6.48;100.00;102856.06;6373472;23;20399;-69
2022/04/28 05:40:41;;;;;;;18.30;9.52;;;;;;;6.54;100.00;102868.00;6347686;23;20333;-71
2022/04/28 05:46:03;;;;;;;16.65;11.07;;;;;;;6.74;100.00;102868.16;6372674;23;20021;-70
2022/04/28 05:48:34;;;;;;;16.30;10.30;;;;;;;6.77;100.00;102869.78;6373520;23;20009;-69
2022/04/28 05:51:06;;;;;;;22.08;11.48;;;;;;;6.86;100.00;102873.78;6372882;23;20218;-69
2022/04/28 05:53:38;;;;;;;17.02;10.23;;;;;;;6.93;100.00;102888.31;6371921;23;20006;-69
2022/04/28 05:56:10;;;;;;;14.65;9.73;;;;;;;7.01;100.00;102884.53;6373007;23;20033;-69
2022/04/28 05:58:41;;;;;;;18.15;10.38;;;;;;;7.07;100.00;102883.44;6372873;23;20014;-69
2022/04/28 06:01:12;;;;;;;21.58;10.85;;;;;;;7.14;100.00;102873.63;6372436;23;19994;-69
2022/04/28 06:03:44;;;;;;;17.27;10.48;;;;;;;7.23;100.00;102889.75;6372605;23;20349;-70
2022/04/28 06:06:15;;;;;;;14.13;10.40;;;;;;;7.29;100.00;102888.69;6345684;23;20108;-69
2022/04/28 06:08:46;;;;;;;18.10;10.65;;;;;;;7.37;100.00;102897.06;6368717;23;20010;-71
2022/04/28 06:11:18;;;;;;;20.67;10.77;;;;;;;7.46;100.00;102893.25;6368577;23;20388;-68
2022/04/28 06:13:50;;;;;;;17.30;10.90;;;;;;;7.49;100.00;102895.75;6342179;23;20377;-69
2022/04/28 06:16:22;;;;;;;13.82;10.70;;;;;;;7.60;100.00;102898.78;6367845;23;20039;-71
2022/04/28 06:18:53;;;;;;;20.17;10.50;;;;;;;7.71;99.28;102906.19;6369482;23;20033;-69
2022/04/28 06:21:24;;;;;;;19.17;11.68;;;;;;;7.83;97.60;102905.69;6370364;23;20006;-69
2022/04/28 06:23:55;;;;;;;21.92;11.05;;;;;;;7.89;98.22;102902.84;6366033;23;20014;-70
2022/04/28 06:26:27;;;;;;;18.92;10.55;;;;;;;8.04;96.30;102914.44;6370185;23;20010;-68
2022/04/28 06:28:58;;;;;;;16.58;10.38;;;;;;;8.18;96.67;102904.28;6371673;23;20006;-69
2022/04/28 06:31:30;;;;;;;14.68;9.77;;;;;;;8.36;96.27;102915.69;6372125;23;20496;-70
2022/04/28 06:34:01;;;;;;;17.85;10.02;;;;;;;8.44;94.03;102913.63;6371290;23;20469;-69
2022/04/28 06:36:34;;;;;;;22.88;11.70;;;;;;;8.59;93.67;102916.50;6371095;23;20337;-69
2022/04/28 06:39:05;;;;;;;16.88;10.50;;;;;;;8.68;91.90;102916.13;6371176;23;20037;-71
2022/04/28 06:41:37;;;;;;;17.95;11.20;;;;;;;8.73;90.54;102914.13;6371315;23;20001;-69
2022/04/28 06:44:08;;;;;;;16.42;10.27;;;;;;;8.87;90.64;102913.53;6370199;23;20534;-69
2022/04/28 06:46:39;;;;;;;17.77;10.40;;;;;;;8.90;88.77;102918.59;6369124;23;20507;-70
2022/04/28 06:49:10;;;;;;;20.20;10.60;;;;;;;9.05;89.01;102917.91;6366581;23;20006;-69
2022/04/28 06:51:42;;;;;;;20.85;10.43;;;;;;;9.16;87.88;102914.81;6371484;23;20084;-69
2022/04/28 06:54:13;;;;;;;18.98;10.40;;;;;;;9.35;88.24;102922.66;6371434;23;20430;-71
2022/04/28 06:56:45;;;;;;;18.00;9.70;;;;;;;9.38;84.75;102917.28;6372203;23;20017;-69
2022/04/28 06:59:17;;;;;;;16.77;9.80;;;;;;;9.57;85.61;102925.13;6371465;23;20012;-69
2022/04/28 07:01:48;;;;;;;20.73;9.98;;;;;;;9.66;82.86;102922.06;6369398;23;20096;-69
2022/04/28 07:04:19;;;;;;;17.35;9.35;;;;;;;9.70;81.59;102918.41;6371346;23;20033;-68
2022/04/28 07:06:50;;;;;;;17.52;9.40;;;;;;;9.92;81.78;102926.03;6371852;23;20012;-69
2022/04/28 07:09:22;;;;;;;16.17;9.82;;;;;;;10.11;81.40;102934.69;6371512;23;20464;-69
2022/04/28 07:11:53;;;;;;;16.65;9.55;;;;;;;10.11;79.12;102945.16;6372942;23;20055;-69
2022/04/28 07:14:25;;;;;;;15.88;9.50;;;;;;;10.14;78.84;102918.00;6371963;23;20481;-69
2022/04/28 07:16:56;;;;;;;14.80;8.65;;;;;;;10.48;78.36;102940.75;6372090;23;20069;-69
2022/04/28 07:19:27;;;;;;;14.68;9.00;;;;;;;10.49;77.61;102950.31;6370573;23;20013;-69
2022/04/28 07:22:02;;;;;;;13.63;8.60;;;;;;;10.77;77.34;102956.78;6370671;23;20013;-70
2022/04/28 07:24:35;;;;;;;13.90;8.82;;;;;;;10.76;73.77;102948.06;6368713;23;20315;-69
2022/04/28 07:27:06;;;;;;;16.13;9.23;;;;;;;10.92;73.92;102964.69;6369747;23;20010;-71
2022/04/28 07:29:37;;;;;;;14.93;8.43;;;;;;;10.92;72.35;102956.81;6371505;23;20509;-71
2022/04/28 07:32:09;;;;;;;13.70;9.07;;;;;;;11.17;73.98;102958.13;6371235;23;20010;-70
2022/04/28 07:34:40;;;;;;;13.65;8.75;;;;;;;11.30;72.72;102966.19;6370496;23;20017;-70
2022/04/28 07:37:11;;;;;;;13.93;8.02;;;;;;;11.32;70.48;102969.56;6370243;23;20332;-71
2022/04/28 07:39:42;;;;;;;14.27;8.90;;;;;;;11.35;70.68;102967.63;6369684;23;20076;-71
2022/04/28 07:42:14;;;;;;;19.42;8.95;;;;;;;11.52;70.88;102971.97;6370570;23;20006;-70
2022/04/28 07:44:45;;;;;;;19.38;8.75;;;;;;;11.53;68.69;102972.81;6370499;23;20022;-70
2022/04/28 07:47:17;;;;;;;18.73;8.75;;;;;;;11.69;69.25;102971.03;6370790;23;20017;-70
2022/04/28 07:49:48;;;;;;;17.65;9.00;;;;;;;11.78;69.26;102973.16;6372258;23;20441;-70
2022/04/28 07:52:19;;;;;;;19.20;9.27;;;;;;;11.93;68.30;102974.97;6372434;23;20134;-70
2022/04/28 07:54:51;;;;;;;17.70;9.20;;;;;;;12.10;67.07;102970.53;6371189;23;20014;-73
2022/04/28 07:57:23;;;;;;;18.55;9.05;;;;;;;12.30;67.01;102977.25;6367900;23;20084;-70
2022/04/28 07:59:54;;;;;;;15.82;8.05;;;;;;;12.31;65.77;102979.81;6371398;23;20013;-73
2022/04/28 08:02:26;;;;;;;15.65;8.43;;;;;;;12.41;64.77;102974.84;6371909;23;20092;-70
2022/04/28 08:04:58;;;;;;;17.20;9.23;;;;;;;12.60;64.32;102985.13;6371069;23;20319;-71
2022/04/28 08:07:30;;;;;;;16.77;7.38;;;;;;;12.67;62.75;102986.44;6370460;23;20013;-70
2022/04/28 08:10:06;;;;;;;17.23;7.95;;;;;;;12.80;61.63;102992.66;6371108;23;20005;-72
2022/04/28 08:12:37;;;;;;;15.02;8.35;;;;;;;12.88;61.71;102984.31;6369603;23;20378;-71
2022/04/28 08:15:08;;;;;;;16.33;8.20;;;;;;;12.91;62.28;102990.22;6369043;23;20010;-71
2022/04/28 08:17:40;;;;;;;15.13;7.55;;;;;;;13.10;62.31;102984.69;6367344;23;20128;-71
2022/04/28 08:20:11;;;;;;;17.02;7.88;;;;;;;13.12;61.81;102987.25;6371117;23;20731;-70
2022/04/28 08:22:42;;;;;;;16.35;8.85;;;;;;;13.35;60.79;102993.75;6372561;23;20092;-70
2022/04/28 08:25:14;;;;;;;18.23;8.30;;;;;;;13.55;61.43;102990.69;6371670;23;20068;-73
2022/04/28 08:27:45;;;;;;;14.18;7.75;;;;;;;13.51;60.08;102997.09;6370887;23;20877;-70
2022/04/28 08:30:16;;;;;;;14.80;7.65;;;;;;;13.72;58.04;103000.19;6372716;23;19998;-70
2022/04/28 08:32:49;;;;;;;14.85;7.85;;;;;;;13.78;57.45;102999.75;6404509;23;20037;-70
2022/04/28 08:35:20;;;;;;;15.80;8.05;;;;;;;13.78;57.29;102997.13;6401470;23;20005;-71
2022/04/28 08:37:51;;;;;;;14.13;7.57;;;;;;;13.94;56.47;102997.00;6402930;23;20012;-72
2022/04/28 08:40:23;;;;;;;12.10;7.13;;;;;;;14.00;54.88;102995.75;6403468;23;20500;-72
2022/04/28 08:42:58;;;;;;;18.75;8.30;;;;;;;14.03;56.78;103006.09;6397886;23;20060;-71
2022/04/28 08:45:37;;;;;;;16.38;7.95;;;;;;;14.16;57.86;102999.06;6418783;23;20092;-70
2022/04/28 08:48:09;;;;;;;18.50;8.35;;;;;;;14.19;54.69;102998.03;6427595;23;20044;-70
2022/04/28 08:50:41;;;;;;;13.80;7.32;;;;;;;14.21;53.70;102999.63;6434284;23;20084;-69
2022/04/28 08:53:13;;;;;;;16.58;8.10;;;;;;;14.32;54.54;102997.13;6434124;23;20005;-69
2022/04/28 08:55:44;;;;;;;13.95;8.18;;;;;;;14.46;54.29;102998.00;6461503;23;20553;-69
2022/04/28 08:58:15;;;;;;;15.75;7.90;;;;;;;14.70;54.45;102998.16;6465205;23;20004;-71
2022/04/28 09:00:46;;;;;;;19.50;8.88;;;;;;;14.78;54.67;102999.34;6464196;23;20012;-72
2022/04/28 09:03:19;;;;;;;15.70;8.48;;;;;;;14.88;54.12;102993.41;6437393;23;20335;-70
2022/04/28 09:05:51;;;;;;;16.15;8.35;;;;;;;15.05;54.48;103001.88;6435174;23;20274;-70
2022/04/28 09:08:23;;;;;;;15.70;8.10;;;;;;;15.09;52.69;102998.06;6434403;23;20058;-70
2022/04/28 09:10:56;;;;;;;11.63;7.30;;;;;;;15.11;50.89;102997.09;6437686;23;20004;-71
2022/04/28 09:14:30;;;;;;;12.40;7.93;;;;;;;15.13;51.10;102992.56;6465649;23;20004;-70
2022/04/28 09:16:30;;;;;;;17.13;8.68;;;;;;;15.13;51.15;103003.97;6444594;23;20439;-70
2022/04/28 09:19:01;;;;;;;13.73;8.13;;;;;;;15.21;51.50;103001.63;6460689;23;20051;-71
2022/04/28 09:21:34;;;;;;;17.02;8.25;;;;;;;15.32;52.29;102993.81;6464316;23;20680;-71
2022/04/28 09:24:07;;;;;;;16.90;8.45;;;;;;;15.29;50.38;102988.72;6463186;23;20576;-70
2022/04/28 09:26:38;;;;;;;13.48;7.85;;;;;;;15.34;51.24;102991.03;6439170;23;20228;-70
2022/04/28 09:29:14;;;;;;;15.95;8.60;;;;;;;15.47;49.43;102986.59;6461051;23;20008;-70
2022/04/28 09:31:48;;;;;;;14.73;8.85;;;;;;;15.61;50.10;102993.53;6436905;23;20000;-70
2022/04/28 09:34:21;;;;;;;13.48;7.68;;;;;;;15.51;48.94;102987.22;6464857;23;20332;-72
2022/04/28 09:36:56;;;;;;;;;;;;;;;16.19;48.43;102984.00;6465756;23;20008;-72
2022/04/28 09:42:29;;;;;;;13.38;7.25;;;;;;;15.64;48.74;102989.81;6465968;23;20040;-70
2022/04/28 09:45:01;;;;;;;;;;;;;;;16.41;48.98;102985.03;6466036;23;20052;-71
2022/04/28 09:47:34;;;;;;;13.00;7.22;;;;;;;15.92;47.49;102986.03;6465441;23;19907;-71
2022/04/28 09:50:16;;;;;;;14.05;7.95;;;;;;;16.15;49.86;102981.69;6464301;23;20274;-71
2022/04/28 09:52:53;;;;;;;14.93;7.70;;;;;;;16.25;48.18;102978.25;6466280;23;20131;-72
2022/04/28 09:55:26;;;;;;;13.50;7.63;;;;;;;16.10;45.04;102979.41;6436300;23;20564;-71
2022/04/28 09:57:58;;;;;;;11.95;7.72;;;;;;;16.40;45.29;102978.03;6460216;23;20325;-72
2022/04/28 10:00:29;;;;;;;14.32;7.53;;;;;;;16.32;46.03;102980.41;6461403;23;20005;-71
2022/04/28 10:03:03;;;;;;;10.73;7.32;;;;;;;16.37;44.67;102975.66;6438101;23;20088;-72
2022/04/28 10:05:35;;;;;;;12.68;7.50;;;;;;;16.29;45.06;102968.28;6437865;23;20005;-71
2022/04/28 10:08:08;;;;;;;10.53;6.63;;;;;;;16.40;44.24;102975.38;6465574;23;20838;-71
2022/04/28 10:10:40;;;;;;;13.10;6.60;;;;;;;16.60;45.85;102965.94;6464444;23;20024;-72
2022/04/28 10:13:12;;;;;;;12.77;7.25;;;;;;;16.46;44.13;102964.34;6463854;23;20091;-71
2022/04/28 10:15:43;;;;;;;11.30;6.22;;;;;;;16.64;45.26;102955.00;6465130;23;20075;-71
2022/04/28 10:18:16;;;;;;;12.68;6.78;;;;;;;16.44;43.15;102964.47;6464101;23;20128;-72
2022/04/28 10:20:50;;;;;;;11.23;6.72;;;;;;;16.50;44.62;102945.47;6462965;23;20439;-71
2022/04/28 10:35:07;;;;;;;14.10;6.75;;;;;;;17.08;42.74;102960.47;6463855;23;20017;-72
2022/04/28 10:37:45;;;;;;;10.52;7.38;;;;;;;16.82;43.19;102958.06;6462219;23;20022;-71
2022/04/28 10:40:21;;;;;;;12.07;6.95;;;;;;;16.93;43.46;102957.22;6435273;23;20407;-73
2022/04/28 10:42:56;;;;;;;15.73;6.80;;;;;;;16.90;43.65;102952.19;6463004;23;20004;-71
2022/04/28 10:45:39;;;;;;;11.73;6.88;;;;;;;17.15;42.33;102951.91;6455675;23;20048;-71
2022/04/28 10:48:25;;;;;;;13.75;6.43;;;;;;;17.17;43.15;102944.69;6461842;23;20008;-71
2022/04/28 10:51:15;;;;;;;11.48;6.57;;;;;;;17.34;43.21;102945.16;6463263;23;20020;-71
2022/04/28 10:53:55;;;;;;;14.18;7.72;;;;;;;17.09;42.92;102944.47;6462595;23;20440;-72
2022/04/28 10:56:56;;;;;;;9.32;6.65;;;;;;;17.13;43.63;102945.91;6461230;23;20008;-72
2022/04/28 10:59:29;;;;;;;14.38;7.20;;;;;;;17.23;42.30;102941.53;6462843;23;20004;-71
2022/04/28 11:02:09;;;;;;;14.85;7.15;;;;;;;17.60;42.21;102941.22;6435198;23;20034;-72
2022/04/28 11:04:43;;;;;;;9.20;6.68;;;;;;;17.57;41.98;102935.34;6462553;23;20329;-72
2022/04/28 11:07:24;;;;;;;10.52;6.95;;;;;;;17.81;42.12;102938.66;6438722;23;20011;-71
2022/04/28 11:10:01;;;;;;;13.80;6.93;;;;;;;17.69;43.15;102931.69;6465056;23;20008;-71
2022/04/28 11:12:37;;;;;;;13.02;7.55;;;;;;;17.82;41.29;102935.03;6464305;23;20483;-71
2022/04/28 11:15:13;;;;;;;10.00;6.85;;;;;;;17.67;40.99;102928.31;6465316;23;20009;-71
2022/04/28 11:17:44;;;;;;;10.20;6.50;;;;;;;17.73;42.41;102928.66;6434463;23;20340;-72
2022/04/28 11:20:20;;;;;;;12.35;7.22;;;;;;;17.65;41.09;102932.91;6462647;23;20012;-72
2022/04/28 11:22:52;;;;;;;11.98;7.50;;;;;;;17.90;41.34;102923.81;6464625;23;20092;-72
2022/04/28 11:25:23;;;;;;;12.95;7.03;;;;;;;17.89;41.76;102922.13;6459760;23;20084;-72
2022/04/28 11:27:56;;;;;;;11.80;6.93;;;;;;;17.98;41.18;102924.00;6463602;23;20096;-72
2022/04/28 11:30:28;;;;;;;;;;;;;;;18.66;41.00;102925.25;6465341;23;20020;-72
2022/04/28 11:32:59;;;;;;;12.63;6.90;;;;;;;18.22;40.34;102916.66;6464531;23;20311;-72
2022/04/28 11:35:31;;;;;;;16.33;6.80;;;;;;;18.10;41.51;102922.13;6462413;23;20043;-73
2022/04/28 11:38:03;;;;;;;10.83;7.60;;;;;;;18.12;40.98;102920.22;6437727;23;20012;-72
2022/04/28 11:40:35;;;;;;;12.53;7.63;;;;;;;18.06;39.86;102915.41;6460309;23;20051;-72
2022/04/28 11:43:06;;;;;;;11.50;7.30;;;;;;;18.02;40.48;102920.13;6438547;23;20009;-72
2022/04/28 11:45:38;;;;;;;11.25;7.03;;;;;;;18.29;40.33;102924.06;6463875;23;20495;-72
2022/04/28 11:48:09;;;;;;;11.95;7.63;;;;;;;18.42;39.35;102922.06;6438616;23;20004;-73
2022/04/28 11:50:41;;;;;;;14.10;7.88;;;;;;;18.43;39.14;102921.09;6466257;23;20005;-73
2022/04/28 11:53:12;;;;;;;11.90;7.60;;;;;;;18.34;40.44;102928.03;6464017;23;20027;-72
2022/04/28 11:55:44;;;;;;;11.60;7.53;;;;;;;18.27;39.47;102926.88;6437700;23;20387;-73
2022/04/28 11:58:16;;;;;;;12.43;7.82;;;;;;;18.38;41.68;102925.97;6468868;23;20020;-72
2022/04/28 12:00:48;;;;;;;10.97;7.80;;;;;;;18.73;38.81;102922.97;6466800;23;20112;-73
2022/04/28 12:03:27;;;;;;;12.75;7.68;;;;;;;18.79;38.69;102922.44;6466208;23;20000;-74
2022/04/28 12:05:58;;;;;;;10.75;8.27;;;;;;;18.65;38.55;102917.44;6459418;23;20005;-73
2022/04/28 12:08:30;;;;;;;11.85;8.18;;;;;;;18.61;39.71;102906.25;6459878;23;20009;-74
2022/04/28 12:19:52;;;;;;;12.20;8.20;;;;;;;18.98;38.68;102907.53;6463078;23;20016;-73
2022/04/28 12:22:26;;;;;;;11.90;7.90;;;;;;;18.81;38.91;102912.50;6467640;23;20084;-73